sensor_id;sensor_type;location;lat;lon;timestamp;pressure;altitude;pressure_sealevel;temperature;humidity
50368;BME280;36281;34.132;-118.018;2023-01-13T00:00:24;100635.25;;;20.03;49.19
50368;BME280;36281;34.132;-118.018;2023-01-13T00:02:53;100637.38;;;19.96;49.73
50368;BME280;36281;34.132;-118.018;2023-01-13T00:05:21;100636.25;;;19.92;50.41
50368;BME280;36281;34.132;-118.018;2023-01-13T00:07:49;100631.09;;;19.85;50.66
50368;BME280;36281;34.132;-118.018;2023-01-13T00:10:17;100623.47;;;19.77;50.50
50368;BME280;36281;34.132;-118.018;2023-01-13T00:12:45;100620.13;;;19.65;50.55
50368;BME280;36281;34.132;-118.018;2023-01-13T00:15:15;100618.88;;;19.51;51.55
50368;BME280;36281;34.132;-118.018;2023-01-13T00:17:43;100619.06;;;19.44;52.79
50368;BME280;36281;34.132;-118.018;2023-01-13T00:20:11;100622.47;;;19.34;52.98
50368;BME280;36281;34.132;-118.018;2023-01-13T00:22:40;100622.56;;;19.23;51.92
50368;BME280;36281;34.132;-118.018;2023-01-13T00:25:08;100621.97;;;19.16;52.15
50368;BME280;36281;34.132;-118.018;2023-01-13T00:27:37;100619.09;;;19.00;51.83
50368;BME280;36281;34.132;-118.018;2023-01-13T00:30:05;100631.56;;;18.90;51.51
50368;BME280;36281;34.132;-118.018;2023-01-13T00:32:35;100630.09;;;18.82;51.67
50368;BME280;36281;34.132;-118.018;2023-01-13T00:35:04;100625.66;;;18.71;52.21
50368;BME280;36281;34.132;-118.018;2023-01-13T00:37:34;100630.03;;;18.60;52.83
50368;BME280;36281;34.132;-118.018;2023-01-13T00:40:02;100626.97;;;18.51;52.75
50368;BME280;36281;34.132;-118.018;2023-01-13T00:42:30;100616.06;;;18.41;53.01
50368;BME280;36281;34.132;-118.018;2023-01-13T00:45:17;100611.28;;;18.26;53.74
50368;BME280;36281;34.132;-118.018;2023-01-13T00:47:47;100610.53;;;18.14;54.03
50368;BME280;36281;34.132;-118.018;2023-01-13T00:50:15;100598.94;;;18.08;53.80
50368;BME280;36281;34.132;-118.018;2023-01-13T00:52:44;100580.59;;;18.00;54.05
50368;BME280;36281;34.132;-118.018;2023-01-13T00:55:12;100574.47;;;17.88;55.52
50368;BME280;36281;34.132;-118.018;2023-01-13T00:57:40;100577.53;;;17.80;56.02
50368;BME280;36281;34.132;-118.018;2023-01-13T01:00:09;100578.31;;;17.64;56.27
50368;BME280;36281;34.132;-118.018;2023-01-13T01:02:37;100572.28;;;17.56;55.82
50368;BME280;36281;34.132;-118.018;2023-01-13T01:05:08;100570.59;;;17.50;55.69
50368;BME280;36281;34.132;-118.018;2023-01-13T01:07:36;100566.31;;;17.38;56.61
50368;BME280;36281;34.132;-118.018;2023-01-13T01:10:05;100569.84;;;17.26;57.47
50368;BME280;36281;34.132;-118.018;2023-01-13T01:12:33;100547.66;;;17.14;56.94
50368;BME280;36281;34.132;-118.018;2023-01-13T01:15:01;100544.88;;;17.09;57.01
50368;BME280;36281;34.132;-118.018;2023-01-13T01:17:32;100550.84;;;16.99;58.07
50368;BME280;36281;34.132;-118.018;2023-01-13T01:20:00;100555.78;;;16.91;58.14
50368;BME280;36281;34.132;-118.018;2023-01-13T01:22:30;100561.94;;;16.79;58.30
50368;BME280;36281;34.132;-118.018;2023-01-13T01:24:58;100556.13;;;16.71;58.61
50368;BME280;36281;34.132;-118.018;2023-01-13T01:27:27;100560.53;;;16.65;59.06
50368;BME280;36281;34.132;-118.018;2023-01-13T01:29:55;100573.47;;;16.57;59.50
50368;BME280;36281;34.132;-118.018;2023-01-13T01:32:23;100580.31;;;16.52;60.11
50368;BME280;36281;34.132;-118.018;2023-01-13T01:34:51;100581.84;;;16.48;60.45
50368;BME280;36281;34.132;-118.018;2023-01-13T01:37:19;100578.34;;;16.36;61.09
50368;BME280;36281;34.132;-118.018;2023-01-13T01:39:49;100583.59;;;16.31;61.58
50368;BME280;36281;34.132;-118.018;2023-01-13T01:42:17;100585.53;;;16.24;61.76
50368;BME280;36281;34.132;-118.018;2023-01-13T01:45:18;100593.88;;;16.16;62.37
50368;BME280;36281;34.132;-118.018;2023-01-13T01:47:47;100595.63;;;16.10;63.14
50368;BME280;36281;34.132;-118.018;2023-01-13T01:50:16;100597.59;;;16.03;62.39
50368;BME280;36281;34.132;-118.018;2023-01-13T01:52:47;100605.25;;;15.99;63.09
50368;BME280;36281;34.132;-118.018;2023-01-13T01:55:19;100601.41;;;15.95;63.33
50368;BME280;36281;34.132;-118.018;2023-01-13T01:57:49;100599.53;;;15.84;63.16
50368;BME280;36281;34.132;-118.018;2023-01-13T02:00:19;100596.50;;;15.81;63.77
50368;BME280;36281;34.132;-118.018;2023-01-13T02:02:48;100605.78;;;15.78;64.65
50368;BME280;36281;34.132;-118.018;2023-01-13T02:05:17;100606.09;;;15.70;64.65
50368;BME280;36281;34.132;-118.018;2023-01-13T02:07:46;100602.25;;;15.66;64.83
50368;BME280;36281;34.132;-118.018;2023-01-13T02:10:16;100602.69;;;15.63;64.97
50368;BME280;36281;34.132;-118.018;2023-01-13T02:12:47;100597.22;;;15.58;65.45
50368;BME280;36281;34.132;-118.018;2023-01-13T02:15:17;100603.00;;;15.55;65.61
50368;BME280;36281;34.132;-118.018;2023-01-13T02:17:51;100601.00;;;15.50;65.41
50368;BME280;36281;34.132;-118.018;2023-01-13T02:20:34;100610.28;;;15.47;65.72
50368;BME280;36281;34.132;-118.018;2023-01-13T02:26:15;100626.03;;;15.37;66.68
50368;BME280;36281;34.132;-118.018;2023-01-13T02:29:00;100622.16;;;15.33;67.03
50368;BME280;36281;34.132;-118.018;2023-01-13T02:31:55;100622.25;;;15.27;67.46
50368;BME280;36281;34.132;-118.018;2023-01-13T02:34:27;100624.56;;;15.23;67.70
50368;BME280;36281;34.132;-118.018;2023-01-13T02:37:00;100622.56;;;15.18;67.43
50368;BME280;36281;34.132;-118.018;2023-01-13T02:39:31;100624.13;;;15.08;67.45
50368;BME280;36281;34.132;-118.018;2023-01-13T02:42:03;100633.84;;;15.02;67.76
50368;BME280;36281;34.132;-118.018;2023-01-13T02:44:50;100641.22;;;15.00;68.03
50368;BME280;36281;34.132;-118.018;2023-01-13T02:47:23;100648.25;;;14.94;68.33
50368;BME280;36281;34.132;-118.018;2023-01-13T02:49:53;100651.34;;;14.91;68.83
50368;BME280;36281;34.132;-118.018;2023-01-13T02:52:24;100650.19;;;14.87;68.75
50368;BME280;36281;34.132;-118.018;2023-01-13T02:54:57;100657.59;;;14.85;69.19
50368;BME280;36281;34.132;-118.018;2023-01-13T02:57:28;100664.03;;;14.78;69.20
50368;BME280;36281;34.132;-118.018;2023-01-13T02:59:58;100671.66;;;14.74;69.40
50368;BME280;36281;34.132;-118.018;2023-01-13T03:02:30;100677.41;;;14.71;69.49
50368;BME280;36281;34.132;-118.018;2023-01-13T03:04:58;100677.63;;;14.69;69.70
50368;BME280;36281;34.132;-118.018;2023-01-13T03:10:18;100683.22;;;14.61;69.98
50368;BME280;36281;34.132;-118.018;2023-01-13T03:12:51;100681.81;;;14.59;70.51
50368;BME280;36281;34.132;-118.018;2023-01-13T03:15:23;100674.47;;;14.54;70.91
50368;BME280;36281;34.132;-118.018;2023-01-13T03:17:59;100689.28;;;14.50;71.07
50368;BME280;36281;34.132;-118.018;2023-01-13T03:20:30;100682.94;;;14.44;71.58
50368;BME280;36281;34.132;-118.018;2023-01-13T03:23:02;100679.28;;;14.39;71.60
50368;BME280;36281;34.132;-118.018;2023-01-13T03:25:35;100668.84;;;14.37;71.30
50368;BME280;36281;34.132;-118.018;2023-01-13T03:28:07;100674.84;;;14.33;71.23
50368;BME280;36281;34.132;-118.018;2023-01-13T03:30:38;100677.34;;;14.28;71.59
50368;BME280;36281;34.132;-118.018;2023-01-13T03:33:12;100684.13;;;14.23;71.83
50368;BME280;36281;34.132;-118.018;2023-01-13T03:35:43;100686.97;;;14.22;72.22
50368;BME280;36281;34.132;-118.018;2023-01-13T03:38:13;100688.66;;;14.16;71.80
50368;BME280;36281;34.132;-118.018;2023-01-13T03:40:44;100675.38;;;14.10;71.83
50368;BME280;36281;34.132;-118.018;2023-01-13T03:43:15;100669.25;;;14.09;71.88
50368;BME280;36281;34.132;-118.018;2023-01-13T03:46:03;100673.78;;;14.02;72.02
50368;BME280;36281;34.132;-118.018;2023-01-13T03:48:36;100665.63;;;13.97;72.50
50368;BME280;36281;34.132;-118.018;2023-01-13T03:51:07;100665.25;;;13.93;72.02
50368;BME280;36281;34.132;-118.018;2023-01-13T03:53:37;100672.63;;;13.91;72.35
50368;BME280;36281;34.132;-118.018;2023-01-13T03:56:07;100685.34;;;13.89;72.40
50368;BME280;36281;34.132;-118.018;2023-01-13T03:58:36;100700.13;;;13.85;72.62
50368;BME280;36281;34.132;-118.018;2023-01-13T04:01:09;100710.34;;;13.82;72.43
50368;BME280;36281;34.132;-118.018;2023-01-13T04:03:42;100708.94;;;13.79;72.31
50368;BME280;36281;34.132;-118.018;2023-01-13T04:06:12;100718.78;;;13.79;72.31
50368;BME280;36281;34.132;-118.018;2023-01-13T04:08:43;100718.16;;;13.77;72.05
50368;BME280;36281;34.132;-118.018;2023-01-13T04:11:14;100715.50;;;13.77;72.14
50368;BME280;36281;34.132;-118.018;2023-01-13T04:13:45;100717.56;;;13.75;72.04
50368;BME280;36281;34.132;-118.018;2023-01-13T04:16:14;100710.22;;;13.70;71.76
50368;BME280;36281;34.132;-118.018;2023-01-13T04:18:44;100714.13;;;13.67;72.03
50368;BME280;36281;34.132;-118.018;2023-01-13T04:21:13;100713.72;;;13.64;71.92
50368;BME280;36281;34.132;-118.018;2023-01-13T04:23:41;100731.16;;;13.60;72.35
50368;BME280;36281;34.132;-118.018;2023-01-13T04:26:09;100733.00;;;13.59;72.32
50368;BME280;36281;34.132;-118.018;2023-01-13T04:28:37;100727.03;;;13.57;71.85
50368;BME280;36281;34.132;-118.018;2023-01-13T04:31:07;100736.88;;;13.57;72.11
50368;BME280;36281;34.132;-118.018;2023-01-13T04:33:35;100729.13;;;13.55;72.25
50368;BME280;36281;34.132;-118.018;2023-01-13T04:36:05;100726.03;;;13.52;72.40
50368;BME280;36281;34.132;-118.018;2023-01-13T04:38:34;100719.53;;;13.48;72.45
50368;BME280;36281;34.132;-118.018;2023-01-13T04:41:02;100725.25;;;13.44;72.25
50368;BME280;36281;34.132;-118.018;2023-01-13T04:43:30;100713.00;;;13.43;72.13
50368;BME280;36281;34.132;-118.018;2023-01-13T04:45:58;100727.28;;;13.42;72.15
50368;BME280;36281;34.132;-118.018;2023-01-13T04:48:27;100727.28;;;13.42;72.75
50368;BME280;36281;34.132;-118.018;2023-01-13T04:50:55;100720.56;;;13.40;72.34
50368;BME280;36281;34.132;-118.018;2023-01-13T04:53:25;100711.97;;;13.38;72.08
50368;BME280;36281;34.132;-118.018;2023-01-13T04:55:53;100712.41;;;13.35;71.84
50368;BME280;36281;34.132;-118.018;2023-01-13T04:58:21;100717.13;;;13.33;71.88
50368;BME280;36281;34.132;-118.018;2023-01-13T05:00:50;100720.41;;;13.28;72.54
50368;BME280;36281;34.132;-118.018;2023-01-13T05:03:18;100725.09;;;13.26;72.74
50368;BME280;36281;34.132;-118.018;2023-01-13T05:05:49;100719.56;;;13.21;72.96
50368;BME280;36281;34.132;-118.018;2023-01-13T05:08:18;100728.97;;;13.17;73.42
50368;BME280;36281;34.132;-118.018;2023-01-13T05:10:48;100726.91;;;13.12;73.17
50368;BME280;36281;34.132;-118.018;2023-01-13T05:13:16;100734.31;;;13.10;73.44
50368;BME280;36281;34.132;-118.018;2023-01-13T05:16:03;100727.16;;;13.04;73.42
50368;BME280;36281;34.132;-118.018;2023-01-13T05:18:49;100722.47;;;13.00;73.48
50368;BME280;36281;34.132;-118.018;2023-01-13T05:21:18;100725.53;;;12.97;73.62
50368;BME280;36281;34.132;-118.018;2023-01-13T05:24:04;100734.31;;;12.90;73.66
50368;BME280;36281;34.132;-118.018;2023-01-13T05:26:52;100738.41;;;12.86;74.09
50368;BME280;36281;34.132;-118.018;2023-01-13T05:29:20;100747.81;;;12.82;74.31
50368;BME280;36281;34.132;-118.018;2023-01-13T05:31:48;100736.78;;;12.79;73.99
50368;BME280;36281;34.132;-118.018;2023-01-13T05:34:17;100733.31;;;12.72;74.16
50368;BME280;36281;34.132;-118.018;2023-01-13T05:36:45;100733.91;;;12.67;74.24
50368;BME280;36281;34.132;-118.018;2023-01-13T05:39:13;100737.59;;;12.59;74.52
50368;BME280;36281;34.132;-118.018;2023-01-13T05:41:41;100744.13;;;12.57;74.71
50368;BME280;36281;34.132;-118.018;2023-01-13T05:44:29;100744.94;;;12.51;74.72
50368;BME280;36281;34.132;-118.018;2023-01-13T05:46:57;100751.28;;;12.50;75.19
50368;BME280;36281;34.132;-118.018;2023-01-13T05:49:26;100745.75;;;12.45;75.41
50368;BME280;36281;34.132;-118.018;2023-01-13T05:51:54;100755.16;;;12.40;75.54
50368;BME280;36281;34.132;-118.018;2023-01-13T05:54:22;100757.19;;;12.38;75.37
50368;BME280;36281;34.132;-118.018;2023-01-13T05:56:50;100762.91;;;12.35;75.42
50368;BME280;36281;34.132;-118.018;2023-01-13T05:59:19;100754.13;;;12.35;75.22
50368;BME280;36281;34.132;-118.018;2023-01-13T06:01:48;100758.78;;;12.33;75.62
50368;BME280;36281;34.132;-118.018;2023-01-13T06:04:17;100748.59;;;12.30;75.91
50368;BME280;36281;34.132;-118.018;2023-01-13T06:06:45;100751.03;;;12.25;75.83
50368;BME280;36281;34.132;-118.018;2023-01-13T06:09:15;100745.69;;;12.18;76.06
50368;BME280;36281;34.132;-118.018;2023-01-13T06:11:43;100746.72;;;12.17;76.50
50368;BME280;36281;34.132;-118.018;2023-01-13T06:14:11;100747.13;;;12.14;76.79
50368;BME280;36281;34.132;-118.018;2023-01-13T06:16:39;100749.78;;;12.14;76.60
50368;BME280;36281;34.132;-118.018;2023-01-13T06:19:09;100747.09;;;12.07;76.78
50368;BME280;36281;34.132;-118.018;2023-01-13T06:21:39;100759.13;;;12.03;77.03
50368;BME280;36281;34.132;-118.018;2023-01-13T06:24:08;100750.75;;;12.00;77.70
50368;BME280;36281;34.132;-118.018;2023-01-13T06:26:37;100753.59;;;11.98;77.35
50368;BME280;36281;34.132;-118.018;2023-01-13T06:29:06;100747.06;;;11.94;77.39
50368;BME280;36281;34.132;-118.018;2023-01-13T06:31:36;100752.75;;;11.91;77.67
50368;BME280;36281;34.132;-118.018;2023-01-13T06:34:06;100756.81;;;11.87;78.17
50368;BME280;36281;34.132;-118.018;2023-01-13T06:36:40;100753.75;;;11.83;78.15
50368;BME280;36281;34.132;-118.018;2023-01-13T06:39:10;100750.81;;;11.78;78.60
50368;BME280;36281;34.132;-118.018;2023-01-13T06:41:40;100764.94;;;11.79;78.63
50368;BME280;36281;34.132;-118.018;2023-01-13T06:44:27;100751.03;;;11.77;78.79
50368;BME280;36281;34.132;-118.018;2023-01-13T06:46:55;100761.44;;;11.72;78.88
50368;BME280;36281;34.132;-118.018;2023-01-13T06:49:24;100756.53;;;11.69;78.85
50368;BME280;36281;34.132;-118.018;2023-01-13T06:51:54;100756.09;;;11.65;78.82
50368;BME280;36281;34.132;-118.018;2023-01-13T06:54:22;100758.75;;;11.65;78.50
50368;BME280;36281;34.132;-118.018;2023-01-13T06:56:52;100760.75;;;11.63;78.58
50368;BME280;36281;34.132;-118.018;2023-01-13T06:59:20;100759.13;;;11.62;78.79
50368;BME280;36281;34.132;-118.018;2023-01-13T07:01:49;100761.34;;;11.58;78.89
50368;BME280;36281;34.132;-118.018;2023-01-13T07:04:17;100760.13;;;11.54;79.25
50368;BME280;36281;34.132;-118.018;2023-01-13T07:06:46;100755.41;;;11.50;79.48
50368;BME280;36281;34.132;-118.018;2023-01-13T07:09:16;100754.53;;;11.43;79.21
50368;BME280;36281;34.132;-118.018;2023-01-13T07:11:44;100761.25;;;11.38;79.22
50368;BME280;36281;34.132;-118.018;2023-01-13T07:14:13;100759.59;;;11.37;79.31
50368;BME280;36281;34.132;-118.018;2023-01-13T07:17:00;100750.41;;;11.33;79.44
50368;BME280;36281;34.132;-118.018;2023-01-13T07:19:28;100749.16;;;11.29;79.43
50368;BME280;36281;34.132;-118.018;2023-01-13T07:21:56;100747.91;;;11.25;79.36
50368;BME280;36281;34.132;-118.018;2023-01-13T07:24:26;100744.81;;;11.22;79.21
50368;BME280;36281;34.132;-118.018;2023-01-13T07:26:54;100745.63;;;11.22;79.19
50368;BME280;36281;34.132;-118.018;2023-01-13T07:29:22;100738.09;;;11.19;78.94
50368;BME280;36281;34.132;-118.018;2023-01-13T07:31:51;100741.13;;;11.16;79.14
50368;BME280;36281;34.132;-118.018;2023-01-13T07:34:19;100733.53;;;11.13;78.90
50368;BME280;36281;34.132;-118.018;2023-01-13T07:36:47;100734.19;;;11.15;78.74
50368;BME280;36281;34.132;-118.018;2023-01-13T07:39:16;100729.47;;;11.10;78.93
50368;BME280;36281;34.132;-118.018;2023-01-13T07:41:46;100734.53;;;11.05;78.89
50368;BME280;36281;34.132;-118.018;2023-01-13T07:44:32;100728.41;;;11.05;78.53
50368;BME280;36281;34.132;-118.018;2023-01-13T07:47:00;100717.56;;;11.00;78.71
50368;BME280;36281;34.132;-118.018;2023-01-13T07:49:29;100715.91;;;10.99;79.04
50368;BME280;36281;34.132;-118.018;2023-01-13T07:51:57;100712.66;;;10.97;78.92
50368;BME280;36281;34.132;-118.018;2023-01-13T07:54:25;100703.06;;;10.96;78.82
50368;BME280;36281;34.132;-118.018;2023-01-13T07:57:07;100709.75;;;10.92;78.60
50368;BME280;36281;34.132;-118.018;2023-01-13T07:59:35;100707.31;;;10.90;78.38
50368;BME280;36281;34.132;-118.018;2023-01-13T08:02:04;100707.88;;;10.85;78.42
50368;BME280;36281;34.132;-118.018;2023-01-13T08:04:32;100706.63;;;10.81;78.09
50368;BME280;36281;34.132;-118.018;2023-01-13T08:07:01;100698.06;;;10.79;78.05
50368;BME280;36281;34.132;-118.018;2023-01-13T08:09:29;100702.13;;;10.82;78.20
50368;BME280;36281;34.132;-118.018;2023-01-13T08:11:57;100702.13;;;10.82;78.17
50368;BME280;36281;34.132;-118.018;2023-01-13T08:14:45;100698.06;;;10.79;78.44
50368;BME280;36281;34.132;-118.018;2023-01-13T08:17:13;100695.41;;;10.79;78.17
50368;BME280;36281;34.132;-118.018;2023-01-13T08:19:42;100687.63;;;10.78;78.08
50368;BME280;36281;34.132;-118.018;2023-01-13T08:22:10;100688.22;;;10.73;78.58
50368;BME280;36281;34.132;-118.018;2023-01-13T08:24:38;100685.56;;;10.73;78.66
50368;BME280;36281;34.132;-118.018;2023-01-13T08:27:07;100677.19;;;10.70;78.54
50368;BME280;36281;34.132;-118.018;2023-01-13T08:29:35;100680.84;;;10.69;78.41
50368;BME280;36281;34.132;-118.018;2023-01-13T08:32:05;100673.09;;;10.67;78.54
50368;BME280;36281;34.132;-118.018;2023-01-13T08:34:34;100680.41;;;10.65;78.56
50368;BME280;36281;34.132;-118.018;2023-01-13T08:37:03;100671.00;;;10.63;78.79
50368;BME280;36281;34.132;-118.018;2023-01-13T08:39:31;100673.03;;;10.60;78.85
50368;BME280;36281;34.132;-118.018;2023-01-13T08:41:59;100676.88;;;10.58;78.72
50368;BME280;36281;34.132;-118.018;2023-01-13T08:44:28;100684.22;;;10.56;79.08
50368;BME280;36281;34.132;-118.018;2023-01-13T08:46:58;100670.97;;;10.56;79.22
50368;BME280;36281;34.132;-118.018;2023-01-13T08:49:28;100674.63;;;10.55;79.64
50368;BME280;36281;34.132;-118.018;2023-01-13T08:51:56;100669.72;;;10.52;79.74
50368;BME280;36281;34.132;-118.018;2023-01-13T08:54:24;100671.09;;;10.48;79.51
50368;BME280;36281;34.132;-118.018;2023-01-13T08:56:52;100673.13;;;10.46;79.66
50368;BME280;36281;34.132;-118.018;2023-01-13T08:59:21;100661.88;;;10.44;79.93
50368;BME280;36281;34.132;-118.018;2023-01-13T09:01:49;100660.66;;;10.40;80.01
50368;BME280;36281;34.132;-118.018;2023-01-13T09:04:18;100655.72;;;10.37;80.46
50368;BME280;36281;34.132;-118.018;2023-01-13T09:06:49;100653.09;;;10.37;80.66
50368;BME280;36281;34.132;-118.018;2023-01-13T09:09:17;100644.69;;;10.33;80.34
50368;BME280;36281;34.132;-118.018;2023-01-13T09:11:46;100639.59;;;10.31;80.45
50368;BME280;36281;34.132;-118.018;2023-01-13T09:14:34;100632.84;;;10.29;80.66
50368;BME280;36281;34.132;-118.018;2023-01-13T09:17:03;100630.41;;;10.27;80.68
50368;BME280;36281;34.132;-118.018;2023-01-13T09:19:31;100625.50;;;10.24;80.48
50368;BME280;36281;34.132;-118.018;2023-01-13T09:22:01;100622.19;;;10.22;80.52
50368;BME280;36281;34.132;-118.018;2023-01-13T09:24:29;100620.09;;;10.18;80.71
50368;BME280;36281;34.132;-118.018;2023-01-13T09:26:57;100610.06;;;10.13;80.71
50368;BME280;36281;34.132;-118.018;2023-01-13T09:29:26;100612.94;;;10.12;80.61
50368;BME280;36281;34.132;-118.018;2023-01-13T09:31:54;100617.59;;;10.09;80.80
50368;BME280;36281;34.132;-118.018;2023-01-13T09:34:24;100610.28;;;10.12;80.87
50368;BME280;36281;34.132;-118.018;2023-01-13T09:37:13;100615.19;;;10.15;80.96
50368;BME280;36281;34.132;-118.018;2023-01-13T09:39:41;100612.97;;;10.18;80.45
50368;BME280;36281;34.132;-118.018;2023-01-13T09:42:12;100617.09;;;10.21;80.21
50368;BME280;36281;34.132;-118.018;2023-01-13T09:45:01;100624.66;;;10.24;79.75
50368;BME280;36281;34.132;-118.018;2023-01-13T09:47:34;100629.94;;;10.24;79.30
50368;BME280;36281;34.132;-118.018;2023-01-13T09:50:16;100622.66;;;10.26;79.43
50368;BME280;36281;34.132;-118.018;2023-01-13T09:52:47;100631.41;;;10.26;78.87
50368;BME280;36281;34.132;-118.018;2023-01-13T09:55:16;100632.03;;;10.28;78.42
50368;BME280;36281;34.132;-118.018;2023-01-13T09:57:45;100627.38;;;10.30;78.49
50368;BME280;36281;34.132;-118.018;2023-01-13T10:00:16;100631.66;;;10.31;77.87
50368;BME280;36281;34.132;-118.018;2023-01-13T10:02:50;100633.50;;;10.31;77.65
50368;BME280;36281;34.132;-118.018;2023-01-13T10:05:26;100625.34;;;10.32;77.32
50368;BME280;36281;34.132;-118.018;2023-01-13T10:08:01;100634.91;;;10.33;77.39
50368;BME280;36281;34.132;-118.018;2023-01-13T10:10:33;100641.44;;;10.31;76.96
50368;BME280;36281;34.132;-118.018;2023-01-13T10:13:07;100634.31;;;10.31;77.31
50368;BME280;36281;34.132;-118.018;2023-01-13T10:15:44;100642.63;;;10.28;76.28
50368;BME280;36281;34.132;-118.018;2023-01-13T10:18:16;100642.63;;;10.28;75.74
50368;BME280;36281;34.132;-118.018;2023-01-13T10:20:51;100641.00;;;10.27;75.74
50368;BME280;36281;34.132;-118.018;2023-01-13T10:23:30;100646.28;;;10.27;75.75
50368;BME280;36281;34.132;-118.018;2023-01-13T10:26:03;100662.16;;;10.27;76.09
50368;BME280;36281;34.132;-118.018;2023-01-13T10:28:34;100664.00;;;10.27;75.86
50368;BME280;36281;34.132;-118.018;2023-01-13T10:31:03;100658.91;;;10.25;76.11
50368;BME280;36281;34.132;-118.018;2023-01-13T10:33:37;100658.91;;;10.25;76.48
50368;BME280;36281;34.132;-118.018;2023-01-13T10:36:12;100663.38;;;10.25;76.25
50368;BME280;36281;34.132;-118.018;2023-01-13T10:38:43;100653.94;;;10.22;76.30
50368;BME280;36281;34.132;-118.018;2023-01-13T10:41:18;100644.56;;;10.20;76.49
50368;BME280;36281;34.132;-118.018;2023-01-13T10:43:57;100643.56;;;10.21;76.88
50368;BME280;36281;34.132;-118.018;2023-01-13T10:46:28;100635.63;;;10.21;76.58
50368;BME280;36281;34.132;-118.018;2023-01-13T10:48:58;100632.31;;;10.19;77.08
50368;BME280;36281;34.132;-118.018;2023-01-13T10:51:27;100632.88;;;10.14;77.24
50368;BME280;36281;34.132;-118.018;2023-01-13T10:53:59;100625.53;;;10.09;77.25
50368;BME280;36281;34.132;-118.018;2023-01-13T10:56:29;100632.47;;;10.10;77.34
50368;BME280;36281;34.132;-118.018;2023-01-13T10:59:08;100635.28;;;10.09;77.32
50368;BME280;36281;34.132;-118.018;2023-01-13T11:01:37;100630.38;;;10.06;77.49
50368;BME280;36281;34.132;-118.018;2023-01-13T11:04:14;100634.03;;;10.05;77.58
50368;BME280;36281;34.132;-118.018;2023-01-13T11:06:44;100635.03;;;10.04;77.74
50368;BME280;36281;34.132;-118.018;2023-01-13T11:09:17;100628.94;;;10.03;77.86
50368;BME280;36281;34.132;-118.018;2023-01-13T11:11:46;100624.03;;;10.00;78.06
50368;BME280;36281;34.132;-118.018;2023-01-13T11:14:19;100619.72;;;9.99;77.85
50368;BME280;36281;34.132;-118.018;2023-01-13T11:17:05;100609.34;;;9.98;77.94
50368;BME280;36281;34.132;-118.018;2023-01-13T11:19:38;100602.41;;;9.97;78.00
50368;BME280;36281;34.132;-118.018;2023-01-13T11:22:09;100592.84;;;9.96;78.89
50368;BME280;36281;34.132;-118.018;2023-01-13T11:24:41;100590.56;;;9.93;78.75
50368;BME280;36281;34.132;-118.018;2023-01-13T11:27:12;100595.84;;;9.93;78.79
50368;BME280;36281;34.132;-118.018;2023-01-13T11:29:43;100606.44;;;9.93;79.00
50368;BME280;36281;34.132;-118.018;2023-01-13T11:32:18;100612.75;;;9.92;79.05
50368;BME280;36281;34.132;-118.018;2023-01-13T11:34:48;100612.94;;;9.90;79.19
50368;BME280;36281;34.132;-118.018;2023-01-13T11:37:20;100609.66;;;9.88;79.25
50368;BME280;36281;34.132;-118.018;2023-01-13T11:39:53;100601.28;;;9.84;79.21
50368;BME280;36281;34.132;-118.018;2023-01-13T11:42:24;100601.28;;;9.84;79.09
50368;BME280;36281;34.132;-118.018;2023-01-13T11:44:59;100604.91;;;9.83;79.46
50368;BME280;36281;34.132;-118.018;2023-01-13T11:47:29;100607.97;;;9.80;79.19
50368;BME280;36281;34.132;-118.018;2023-01-13T11:49:58;100609.34;;;9.76;79.44
50368;BME280;36281;34.132;-118.018;2023-01-13T11:52:29;100609.69;;;9.73;79.49
50368;BME280;36281;34.132;-118.018;2023-01-13T11:55:15;100609.91;;;9.72;79.76
50368;BME280;36281;34.132;-118.018;2023-01-13T11:57:51;100610.91;;;9.71;79.58
50368;BME280;36281;34.132;-118.018;2023-01-13T12:00:26;100613.72;;;9.69;79.73
50368;BME280;36281;34.132;-118.018;2023-01-13T12:03:03;100617.00;;;9.71;79.61
50368;BME280;36281;34.132;-118.018;2023-01-13T12:05:36;100611.72;;;9.71;79.45
50368;BME280;36281;34.132;-118.018;2023-01-13T12:08:09;100614.38;;;9.71;79.19
50368;BME280;36281;34.132;-118.018;2023-01-13T12:10:45;100609.44;;;9.68;79.39
50368;BME280;36281;34.132;-118.018;2023-01-13T12:13:19;100604.56;;;9.65;79.52
50368;BME280;36281;34.132;-118.018;2023-01-13T12:15:59;100601.25;;;9.63;79.55
50368;BME280;36281;34.132;-118.018;2023-01-13T12:21:17;100608.72;;;9.59;79.65
50368;BME280;36281;34.132;-118.018;2023-01-13T12:23:50;100610.56;;;9.59;79.58
50368;BME280;36281;34.132;-118.018;2023-01-13T12:26:23;100612.38;;;9.58;79.74
50368;BME280;36281;34.132;-118.018;2023-01-13T12:28:52;100610.94;;;9.56;79.46
50368;BME280;36281;34.132;-118.018;2023-01-13T12:31:21;100609.31;;;9.55;79.60
50368;BME280;36281;34.132;-118.018;2023-01-13T12:34:00;100608.06;;;9.51;79.51
50368;BME280;36281;34.132;-118.018;2023-01-13T12:36:36;100609.22;;;9.48;79.68
50368;BME280;36281;34.132;-118.018;2023-01-13T12:39:11;100619.38;;;9.45;79.58
50368;BME280;36281;34.132;-118.018;2023-01-13T12:41:45;100614.09;;;9.45;80.08
50368;BME280;36281;34.132;-118.018;2023-01-13T12:44:34;100613.25;;;9.44;80.20
50368;BME280;36281;34.132;-118.018;2023-01-13T12:47:03;100610.59;;;9.44;80.15
50368;BME280;36281;34.132;-118.018;2023-01-13T12:49:31;100618.53;;;9.44;80.17